createdAt,value
2023-05-12T00:01:01.900Z,10.08
2023-05-12T00:03:30.188Z,10.05
2023-05-12T00:06:06.767Z,9.97
2023-05-12T00:08:34.851Z,9.93
2023-05-12T00:11:11.937Z,9.94
2023-05-12T00:13:40.433Z,9.90
2023-05-12T00:16:09.244Z,10.06
2023-05-12T00:18:37.922Z,10.15
2023-05-12T00:21:08.760Z,10.25
2023-05-12T00:23:36.976Z,10.28
2023-05-12T00:26:07.463Z,10.32
2023-05-12T00:28:36.288Z,10.26
2023-05-12T00:31:04.714Z,10.27
2023-05-12T00:33:33.677Z,10.32
2023-05-12T00:36:04.006Z,10.35
2023-05-12T00:38:34.251Z,10.30
2023-05-12T00:41:02.143Z,10.23
2023-05-12T00:43:30.302Z,10.18
2023-05-12T00:45:58.585Z,10.12
2023-05-12T00:48:27.119Z,10.05
2023-05-12T00:50:55.879Z,10.20
2023-05-12T00:53:24.531Z,10.40
2023-05-12T00:55:54.143Z,10.48
2023-05-12T00:58:22.186Z,10.39
2023-05-12T01:00:53.655Z,10.20
2023-05-12T01:03:24.839Z,10.03
2023-05-12T01:06:26.406Z,9.87
2023-05-12T01:08:54.966Z,9.75
2023-05-12T01:11:23.826Z,9.70
2023-05-12T01:13:52.722Z,9.66
2023-05-12T01:16:24.402Z,9.62
2023-05-12T01:18:55.735Z,9.50
2023-05-12T01:21:24.056Z,9.47
2023-05-12T01:23:59.902Z,9.50
2023-05-12T01:26:32.900Z,9.53
2023-05-12T01:29:05.141Z,9.48
2023-05-12T01:31:33.848Z,9.45
2023-05-12T01:34:01.835Z,9.51
2023-05-12T01:36:29.975Z,9.49
2023-05-12T01:39:00.702Z,9.50
2023-05-12T01:41:29.420Z,9.43
2023-05-12T01:43:59.224Z,9.36
2023-05-12T01:46:27.570Z,9.29
2023-05-12T01:48:55.869Z,9.28
2023-05-12T01:51:23.935Z,9.39
2023-05-12T01:53:52.020Z,9.44
2023-05-12T01:56:20.389Z,9.62
2023-05-12T01:58:48.970Z,9.63
2023-05-12T02:01:18.806Z,9.58
2023-05-12T02:03:46.982Z,9.57
2023-05-12T02:06:15.257Z,9.65
2023-05-12T02:08:43.528Z,9.63
2023-05-12T02:11:11.974Z,9.66
2023-05-12T02:13:40.439Z,9.65
2023-05-12T02:16:08.746Z,9.71
2023-05-12T02:18:40.082Z,9.84
2023-05-12T02:21:08.264Z,10.00
2023-05-12T02:23:36.759Z,10.53
2023-05-12T02:26:05.024Z,11.64
2023-05-12T02:28:33.745Z,12.89
2023-05-12T02:31:02.021Z,14.32
2023-05-12T02:33:30.632Z,15.21
2023-05-12T02:35:58.942Z,16.24
2023-05-12T02:38:27.988Z,17.41
2023-05-12T02:40:56.536Z,18.46
2023-05-12T02:43:24.795Z,19.16
2023-05-12T02:45:53.130Z,20.34
2023-05-12T02:48:21.686Z,21.38
2023-05-12T02:50:49.974Z,22.30
2023-05-12T02:53:18.074Z,22.99
2023-05-12T02:55:46.347Z,23.59
2023-05-12T02:58:14.587Z,23.79
2023-05-12T03:00:42.655Z,23.62
2023-05-12T03:03:10.961Z,24.57
2023-05-12T03:05:39.212Z,24.57
2023-05-12T03:08:07.836Z,24.60
2023-05-12T03:10:36.519Z,25.88
2023-05-12T03:13:04.533Z,26.74
2023-05-12T03:15:32.748Z,26.63
2023-05-12T03:18:00.920Z,27.78
2023-05-12T03:20:28.929Z,28.58
2023-05-12T03:22:57.088Z,29.72
2023-05-12T03:25:25.099Z,29.95
2023-05-12T03:27:53.534Z,30.42
2023-05-12T03:30:24.617Z,30.60
2023-05-12T03:32:52.804Z,30.91
2023-05-12T03:35:21.167Z,31.43
2023-05-12T03:37:49.160Z,31.74
2023-05-12T03:40:19.220Z,31.25
2023-05-12T03:42:47.451Z,31.78
2023-05-12T03:45:15.928Z,32.79
2023-05-12T03:47:44.614Z,33.32
2023-05-12T03:50:13.279Z,33.75
2023-05-12T03:52:41.955Z,34.01
2023-05-12T03:55:10.756Z,32.96
2023-05-12T03:57:38.852Z,33.43
2023-05-12T04:00:07.644Z,33.70
2023-05-12T04:02:36.598Z,34.48
2023-05-12T04:05:08.507Z,34.41
2023-05-12T04:07:38.927Z,34.13
2023-05-12T04:10:07.567Z,33.39
2023-05-12T04:12:35.632Z,33.47
2023-05-12T04:15:03.994Z,35.00
2023-05-12T04:17:32.865Z,35.11
2023-05-12T04:20:01.121Z,35.32
2023-05-12T04:22:31.966Z,34.93
2023-05-12T04:25:00.034Z,34.79
2023-05-12T04:27:30.913Z,34.34
2023-05-12T04:29:59.003Z,34.68
2023-05-12T04:32:26.910Z,33.46
2023-05-12T04:34:57.091Z,33.68
2023-05-12T04:37:25.023Z,33.87
2023-05-12T04:39:53.892Z,33.52
2023-05-12T04:42:21.955Z,33.57
2023-05-12T04:44:50.386Z,34.32
2023-05-12T04:47:18.717Z,34.89
2023-05-12T04:49:47.353Z,34.87
2023-05-12T04:52:15.832Z,35.07
2023-05-12T04:54:44.637Z,35.28
2023-05-12T04:57:12.564Z,36.94
2023-05-12T04:59:41.559Z,36.11
2023-05-12T05:02:12.143Z,34.72
2023-05-12T05:04:44.806Z,34.03
2023-05-12T05:07:13.030Z,33.42
2023-05-12T05:09:41.050Z,34.67
2023-05-12T05:12:09.327Z,33.24
2023-05-12T05:14:37.394Z,33.72
2023-05-12T05:17:08.524Z,34.74
2023-05-12T05:19:50.931Z,36.36
2023-05-12T05:22:23.774Z,36.18
2023-05-12T05:24:52.369Z,36.34
2023-05-12T05:27:21.249Z,35.73
2023-05-12T05:29:49.716Z,35.25
2023-05-12T05:32:17.699Z,33.61
2023-05-12T05:34:45.888Z,33.27
2023-05-12T05:37:14.040Z,33.92
2023-05-12T05:39:42.456Z,34.80
2023-05-12T05:42:12.316Z,35.47
2023-05-12T05:44:43.991Z,35.64
2023-05-12T05:47:14.593Z,36.56
2023-05-12T05:49:43.002Z,34.92
2023-05-12T05:52:11.137Z,35.86
2023-05-12T05:54:39.478Z,35.66
2023-05-12T05:57:10.151Z,35.67
2023-05-12T05:59:39.125Z,35.44
2023-05-12T06:02:07.626Z,34.58
2023-05-12T06:04:36.250Z,34.01
2023-05-12T06:07:07.234Z,34.66
2023-05-12T06:09:36.455Z,34.09
2023-05-12T06:12:04.967Z,35.02
2023-05-12T06:14:33.012Z,35.52
2023-05-12T06:17:01.309Z,35.88
2023-05-12T06:19:31.165Z,35.67
2023-05-12T06:21:59.803Z,36.02
2023-05-12T06:24:28.147Z,35.76
2023-05-12T06:26:56.817Z,35.57
2023-05-12T06:29:25.030Z,34.38
2023-05-12T06:31:54.326Z,34.20
2023-05-12T06:34:22.901Z,34.44
2023-05-12T06:36:52.130Z,34.91
2023-05-12T06:39:21.678Z,34.09
2023-05-12T06:41:49.991Z,34.02
2023-05-12T06:44:18.689Z,34.64
2023-05-12T06:46:46.953Z,33.79
2023-05-12T06:49:14.673Z,34.48
2023-05-12T06:51:43.122Z,34.61
2023-05-12T06:54:11.379Z,33.44
2023-05-12T06:56:39.427Z,33.44
2023-05-12T06:59:07.926Z,32.51
2023-05-12T07:01:37.102Z,30.02
2023-05-12T07:04:05.944Z,27.10
2023-05-12T07:06:35.837Z,24.85
2023-05-12T07:09:04.952Z,23.34
2023-05-12T07:11:33.554Z,22.57
2023-05-12T07:14:01.754Z,22.12
2023-05-12T07:16:30.267Z,21.51
2023-05-12T07:18:58.876Z,21.03
2023-05-12T07:21:27.780Z,20.71
2023-05-12T07:23:56.814Z,20.58
2023-05-12T07:26:24.832Z,20.54
2023-05-12T07:28:53.917Z,20.39
2023-05-12T07:31:22.488Z,20.13
2023-05-12T07:33:50.571Z,20.19
2023-05-12T07:36:21.322Z,20.41
2023-05-12T07:38:50.870Z,20.55
2023-05-12T07:41:19.347Z,20.48
2023-05-12T07:43:47.575Z,20.30
2023-05-12T07:46:15.632Z,20.27
2023-05-12T07:48:44.030Z,20.39
2023-05-12T07:51:12.119Z,20.40
2023-05-12T07:53:40.128Z,20.41
2023-05-12T07:56:08.854Z,20.54
2023-05-12T07:58:37.490Z,20.64
2023-05-12T08:01:07.184Z,20.58
2023-05-12T08:03:39.964Z,20.47
2023-05-12T08:06:08.303Z,20.26
2023-05-12T08:08:36.878Z,20.29
2023-05-12T08:11:05.191Z,20.40
2023-05-12T08:13:33.801Z,20.47
2023-05-12T08:16:01.718Z,20.59
2023-05-12T08:18:29.876Z,20.88
2023-05-12T08:20:58.879Z,21.01
2023-05-12T08:23:29.898Z,20.99
2023-05-12T08:25:59.342Z,21.20
2023-05-12T08:28:27.370Z,21.25
2023-05-12T08:30:55.269Z,21.26
2023-05-12T08:33:24.364Z,21.32
2023-05-12T08:35:52.627Z,21.26
2023-05-12T08:38:29.886Z,21.24
2023-05-12T08:41:07.268Z,21.25
2023-05-12T08:43:46.813Z,21.40
2023-05-12T08:46:15.806Z,21.46
2023-05-12T08:48:46.773Z,21.39
2023-05-12T08:51:14.941Z,21.25
2023-05-12T08:53:43.583Z,21.33
2023-05-12T08:58:46.809Z,21.37
2023-05-12T09:01:15.341Z,21.38
2023-05-12T09:03:45.723Z,21.36
2023-05-12T09:06:13.883Z,21.72
2023-05-12T09:08:42.241Z,21.95
2023-05-12T09:11:13.904Z,22.03
2023-05-12T09:13:56.002Z,22.25
2023-05-12T09:16:26.014Z,22.24
2023-05-12T09:18:55.361Z,21.93
2023-05-12T09:21:23.821Z,21.95
2023-05-12T09:23:55.910Z,22.14
2023-05-12T09:26:25.905Z,22.27
2023-05-12T09:28:56.666Z,22.25
2023-05-12T09:31:26.453Z,22.04
2023-05-12T09:33:54.642Z,21.87
2023-05-12T09:36:24.932Z,21.54
2023-05-12T09:39:07.708Z,21.34
2023-05-12T09:41:41.105Z,21.50
2023-05-12T09:44:10.570Z,21.51
2023-05-12T09:46:40.153Z,21.47
2023-05-12T09:49:09.769Z,21.32
2023-05-12T09:51:38.274Z,21.52
2023-05-12T09:54:09.481Z,21.72
2023-05-12T09:56:38.743Z,22.06
2023-05-12T09:59:07.271Z,22.08
2023-05-12T10:01:36.289Z,22.16
2023-05-12T10:04:05.952Z,22.08
2023-05-12T10:06:38.685Z,22.06
2023-05-12T10:09:28.447Z,22.02
2023-05-12T10:11:57.115Z,22.19
2023-05-12T10:14:25.385Z,22.15
2023-05-12T10:16:56.792Z,22.34
2023-05-12T10:19:27.614Z,22.49
2023-05-12T10:21:58.355Z,22.52
2023-05-12T10:24:28.056Z,22.77
2023-05-12T10:26:59.838Z,22.84
2023-05-12T10:29:30.293Z,23.09
2023-05-12T10:32:00.033Z,23.30
2023-05-12T10:34:34.498Z,23.04
2023-05-12T10:37:08.587Z,22.83
2023-05-12T10:39:38.473Z,23.00
2023-05-12T10:42:07.716Z,23.10
2023-05-12T10:44:37.044Z,23.29
2023-05-12T10:47:15.017Z,23.29
2023-05-12T10:49:43.636Z,23.42
2023-05-12T10:52:13.394Z,23.53
2023-05-12T10:54:45.901Z,23.51
2023-05-12T10:57:21.170Z,23.45
2023-05-12T10:59:54.833Z,23.50
2023-05-12T11:02:32.615Z,23.58
2023-05-12T11:05:05.203Z,23.26
2023-05-12T11:07:35.273Z,23.36
2023-05-12T11:10:06.499Z,23.42
2023-05-12T11:12:36.699Z,23.36
2023-05-12T11:15:07.241Z,23.21
2023-05-12T11:18:02.801Z,23.29
2023-05-12T11:20:31.293Z,23.16
2023-05-12T11:22:59.986Z,23.08
2023-05-12T11:25:28.748Z,23.10
2023-05-12T11:27:57.137Z,23.19
2023-05-12T11:30:26.661Z,23.23
2023-05-12T11:33:02.614Z,23.23
2023-05-12T11:35:32.602Z,23.26
2023-05-12T11:38:03.352Z,23.12
2023-05-12T11:40:31.626Z,22.86
2023-05-12T11:43:10.495Z,22.89
2023-05-12T11:45:38.617Z,22.98
2023-05-12T11:48:12.606Z,23.03
2023-05-12T11:50:48.118Z,22.88
2023-05-12T11:53:19.545Z,23.08
2023-05-12T11:55:53.402Z,23.04
2023-05-12T11:58:27.267Z,22.80
2023-05-12T12:00:55.918Z,23.04
2023-05-12T12:03:25.637Z,23.31
2023-05-12T12:06:04.828Z,23.50
2023-05-12T12:08:34.571Z,23.63
2023-05-12T12:11:04.713Z,23.58
2023-05-12T12:13:33.458Z,23.61
2023-05-12T12:16:01.586Z,23.53
2023-05-12T12:18:29.748Z,23.30
2023-05-12T12:20:58.435Z,22.87
2023-05-12T12:23:27.260Z,22.79
2023-05-12T12:25:58.598Z,22.99
2023-05-12T12:28:29.115Z,23.09
2023-05-12T12:30:57.565Z,22.93
2023-05-12T12:33:25.792Z,22.95
2023-05-12T12:35:54.115Z,22.81
2023-05-12T12:38:22.239Z,22.53
2023-05-12T12:40:50.311Z,22.66
2023-05-12T12:43:18.139Z,22.79
2023-05-12T12:45:46.717Z,22.97
2023-05-12T12:48:15.515Z,23.12
2023-05-12T12:50:43.771Z,23.17
2023-05-12T12:53:11.813Z,22.98
2023-05-12T12:55:39.921Z,22.62
2023-05-12T12:58:07.772Z,22.34
2023-05-12T13:00:37.690Z,22.09
2023-05-12T13:03:08.271Z,22.02
2023-05-12T13:05:37.159Z,22.00
2023-05-12T13:08:05.530Z,21.92
2023-05-12T13:10:33.696Z,21.86
2023-05-12T13:13:02.162Z,21.82
2023-05-12T13:15:32.728Z,21.81
2023-05-12T13:18:00.963Z,22.25
2023-05-12T13:20:29.480Z,22.68
2023-05-12T13:22:59.624Z,22.85
2023-05-12T13:25:27.667Z,22.94
2023-05-12T13:27:55.686Z,22.99
2023-05-12T13:30:25.366Z,22.93
2023-05-12T13:32:53.496Z,22.97
2023-05-12T13:35:21.954Z,23.07
2023-05-12T13:38:00.112Z,23.11
2023-05-12T13:40:28.478Z,23.18
2023-05-12T13:42:57.173Z,23.16
2023-05-12T13:45:26.106Z,23.23
2023-05-12T13:47:54.443Z,23.28
2023-05-12T13:50:23.079Z,23.27
2023-05-12T13:52:51.186Z,23.44
2023-05-12T13:55:21.757Z,23.57
2023-05-12T13:57:50.308Z,23.77
2023-05-12T14:00:19.164Z,23.80
2023-05-12T14:02:47.267Z,23.64
2023-05-12T14:05:16.275Z,23.65
2023-05-12T14:07:44.724Z,23.53
2023-05-12T14:10:12.993Z,23.05
2023-05-12T14:12:43.226Z,22.93
2023-05-12T14:17:48.202Z,22.51
2023-05-12T14:20:16.834Z,22.49
2023-05-12T14:22:45.787Z,22.50
2023-05-12T14:25:17.117Z,22.62
2023-05-12T14:27:45.780Z,22.62
2023-05-12T14:30:18.293Z,22.35
2023-05-12T14:32:46.255Z,22.14
2023-05-12T14:35:14.314Z,21.97
2023-05-12T14:37:42.609Z,21.96
2023-05-12T14:40:12.485Z,22.27
2023-05-12T14:42:40.844Z,22.38
2023-05-12T14:45:10.291Z,22.22
2023-05-12T14:47:42.012Z,22.15
2023-05-12T14:50:11.029Z,22.06
2023-05-12T14:52:39.337Z,21.92
2023-05-12T14:55:12.386Z,21.77
2023-05-12T14:57:41.511Z,21.63
2023-05-12T15:00:12.120Z,21.49
2023-05-12T15:02:41.790Z,21.30
2023-05-12T15:05:11.962Z,21.14
2023-05-12T15:07:40.260Z,21.02
2023-05-12T15:10:08.992Z,20.95
2023-05-12T15:12:38.996Z,20.86
2023-05-12T15:15:09.165Z,20.78
2023-05-12T15:17:39.043Z,20.68
2023-05-12T15:20:08.449Z,20.72
2023-05-12T15:22:37.303Z,20.74
2023-05-12T15:25:05.912Z,20.88
2023-05-12T15:27:34.224Z,20.98
2023-05-12T15:30:03.491Z,20.95
2023-05-12T15:32:32.416Z,20.99
2023-05-12T15:35:00.451Z,20.92
2023-05-12T15:37:28.886Z,20.87
2023-05-12T15:39:56.772Z,20.76
2023-05-12T15:42:29.977Z,20.67
2023-05-12T15:45:01.021Z,20.70
2023-05-12T15:47:29.787Z,20.75
2023-05-12T15:49:58.485Z,20.68
2023-05-12T15:52:28.754Z,20.62
2023-05-12T15:54:56.937Z,20.65
2023-05-12T15:57:25.197Z,20.75
2023-05-12T16:00:00.317Z,20.75
2023-05-12T16:02:29.506Z,20.73
2023-05-12T16:04:57.628Z,20.63
2023-05-12T16:07:32.000Z,20.50
2023-05-12T16:10:00.323Z,20.38
2023-05-12T16:12:28.714Z,20.32
2023-05-12T16:14:56.940Z,20.21
2023-05-12T16:17:28.135Z,20.15
2023-05-12T16:19:58.618Z,20.10
2023-05-12T16:22:26.823Z,19.96
2023-05-12T16:24:56.997Z,19.88
2023-05-12T16:27:25.575Z,19.75
2023-05-12T16:29:57.227Z,19.69
2023-05-12T16:32:25.357Z,19.54
2023-05-12T16:34:53.593Z,19.42
2023-05-12T16:37:23.169Z,19.33
2023-05-12T16:39:51.123Z,19.24
2023-05-12T16:42:19.425Z,19.13
2023-05-12T16:44:48.237Z,19.05
2023-05-12T16:47:19.838Z,18.94
2023-05-12T16:49:47.875Z,18.85
2023-05-12T16:52:16.153Z,18.69
2023-05-12T16:54:44.263Z,18.66
2023-05-12T16:57:12.294Z,18.59
2023-05-12T16:59:40.470Z,18.42
2023-05-12T17:02:08.926Z,18.27
2023-05-12T17:04:38.058Z,18.22
2023-05-12T17:07:06.436Z,18.19
2023-05-12T17:09:34.367Z,18.17
2023-05-12T17:12:05.383Z,18.01
2023-05-12T17:14:35.071Z,17.77
2023-05-12T17:17:03.405Z,17.57
2023-05-12T17:19:33.835Z,17.36
2023-05-12T17:22:02.105Z,17.19
2023-05-12T17:24:30.727Z,17.00
2023-05-12T17:26:59.927Z,16.84
2023-05-12T17:29:28.944Z,16.68
2023-05-12T17:31:57.827Z,16.51
2023-05-12T17:34:25.920Z,16.38
2023-05-12T17:36:56.321Z,16.27
2023-05-12T17:39:24.384Z,16.14
2023-05-12T17:41:52.623Z,16.11
2023-05-12T17:44:20.912Z,16.05
2023-05-12T17:46:49.626Z,15.97
2023-05-12T17:49:17.727Z,15.89
2023-05-12T17:51:50.273Z,15.77
2023-05-12T17:54:18.296Z,15.62
2023-05-12T17:56:47.803Z,15.48
2023-05-12T17:59:16.268Z,15.42
2023-05-12T18:01:44.421Z,15.30
2023-05-12T18:04:12.995Z,15.16
2023-05-12T18:06:41.606Z,15.04
2023-05-12T18:09:10.364Z,14.97
2023-05-12T18:11:38.679Z,14.90
2023-05-12T18:14:07.528Z,14.71
2023-05-12T18:16:38.295Z,14.68
2023-05-12T18:19:06.768Z,14.64
2023-05-12T18:21:35.853Z,14.55
2023-05-12T18:24:05.056Z,14.47
2023-05-12T18:26:33.138Z,14.41
2023-05-12T18:29:01.135Z,14.35
2023-05-12T18:31:29.791Z,14.27
2023-05-12T18:33:58.006Z,14.23
2023-05-12T18:36:26.041Z,14.15
2023-05-12T18:38:54.381Z,14.05
2023-05-12T18:41:23.613Z,14.00
2023-05-12T18:43:52.036Z,13.92
2023-05-12T18:46:22.938Z,13.86
2023-05-12T18:48:51.384Z,13.82
2023-05-12T18:51:19.554Z,13.74
2023-05-12T18:53:48.729Z,13.71
2023-05-12T18:56:17.310Z,13.62
2023-05-12T18:58:46.881Z,13.57
2023-05-12T19:01:15.034Z,13.54
2023-05-12T19:03:45.492Z,13.50
2023-05-12T19:06:13.943Z,13.43
2023-05-12T19:08:56.274Z,13.37
2023-05-12T19:11:24.950Z,13.25
2023-05-12T19:13:53.240Z,13.20
2023-05-12T19:16:24.091Z,13.18
2023-05-12T19:18:52.208Z,13.12
2023-05-12T19:21:20.484Z,13.10
2023-05-12T19:23:49.100Z,13.06
2023-05-12T19:26:17.403Z,13.00
2023-05-12T19:28:45.665Z,12.93
2023-05-12T19:31:14.229Z,12.86
2023-05-12T19:33:42.469Z,12.84
2023-05-12T19:36:11.794Z,12.79
2023-05-12T19:38:43.943Z,12.73
2023-05-12T19:41:12.254Z,12.70
2023-05-12T19:43:40.773Z,12.69
2023-05-12T19:46:09.316Z,12.64
2023-05-12T19:48:38.189Z,12.58
2023-05-12T19:51:06.437Z,12.55
2023-05-12T19:53:35.237Z,12.54
2023-05-12T19:56:03.717Z,12.54
2023-05-12T19:58:31.818Z,12.49
2023-05-12T20:01:00.166Z,12.43
2023-05-12T20:03:28.670Z,12.40
2023-05-12T20:05:56.971Z,12.38
2023-05-12T20:08:25.447Z,12.38
2023-05-12T20:10:53.738Z,12.34
2023-05-12T20:13:22.194Z,12.34
2023-05-12T20:15:50.886Z,12.28
2023-05-12T20:18:21.954Z,12.23
2023-05-12T20:20:50.319Z,12.20
2023-05-12T20:23:18.460Z,12.13
2023-05-12T20:25:47.320Z,12.06
2023-05-12T20:28:15.895Z,12.02
2023-05-12T20:30:47.246Z,11.99
2023-05-12T20:33:18.708Z,11.96
2023-05-12T20:35:47.596Z,11.95
2023-05-12T20:38:16.284Z,11.97
2023-05-12T20:40:44.638Z,11.96
2023-05-12T20:43:14.693Z,11.88
2023-05-12T20:45:43.051Z,11.81
2023-05-12T20:48:11.883Z,11.77
2023-05-12T20:50:40.566Z,11.75
2023-05-12T20:53:09.056Z,11.71
2023-05-12T20:55:37.103Z,11.65
2023-05-12T20:58:05.258Z,11.59
2023-05-12T21:00:33.941Z,11.54
2023-05-12T21:03:04.087Z,11.56
2023-05-12T21:05:32.752Z,11.61
2023-05-12T21:08:02.025Z,11.62
2023-05-12T21:10:32.589Z,11.61
2023-05-12T21:13:01.067Z,11.49
2023-05-12T21:15:29.638Z,11.37
2023-05-12T21:17:58.463Z,11.30
2023-05-12T21:20:26.475Z,11.25
2023-05-12T21:22:57.302Z,11.15
2023-05-12T21:25:25.609Z,11.09
2023-05-12T21:27:53.759Z,11.03
2023-05-12T21:30:22.116Z,11.04
2023-05-12T21:32:53.340Z,11.07
2023-05-12T21:35:21.102Z,11.08
2023-05-12T21:37:49.966Z,11.07
2023-05-12T21:40:17.973Z,11.01
2023-05-12T21:42:46.361Z,11.01
2023-05-12T21:45:15.599Z,10.94
2023-05-12T21:47:47.869Z,10.90
2023-05-12T21:50:17.061Z,10.90
2023-05-12T21:52:45.601Z,10.89
2023-05-12T21:55:15.158Z,10.87
2023-05-12T21:57:45.393Z,10.85
2023-05-12T22:00:20.517Z,10.82
2023-05-12T22:02:49.677Z,10.82
2023-05-12T22:05:18.068Z,10.77
2023-05-12T22:07:46.905Z,10.73
2023-05-12T22:10:24.167Z,10.74
2023-05-12T22:12:59.854Z,10.73
2023-05-12T22:15:31.136Z,10.71
2023-05-12T22:17:59.234Z,10.73
2023-05-12T22:20:30.408Z,10.72
2023-05-12T22:22:58.784Z,10.70
2023-05-12T22:25:26.829Z,10.69
2023-05-12T22:27:55.197Z,10.63
2023-05-12T22:30:32.156Z,10.58
2023-05-12T22:33:05.932Z,10.52
2023-05-12T22:35:43.746Z,10.52
2023-05-12T22:38:14.923Z,10.50
2023-05-12T22:40:46.804Z,10.52
2023-05-12T22:43:15.606Z,10.50
2023-05-12T22:45:51.518Z,10.45
2023-05-12T22:48:20.823Z,10.41
2023-05-12T22:50:54.512Z,10.41
2023-05-12T22:53:22.736Z,10.37
2023-05-12T22:55:50.783Z,10.38
2023-05-12T22:58:28.941Z,10.41
2023-05-12T23:00:56.667Z,10.39
2023-05-12T23:03:31.185Z,10.38
2023-05-12T23:06:19.882Z,10.33
2023-05-12T23:08:48.451Z,10.32
2023-05-12T23:11:16.605Z,10.29
2023-05-12T23:13:44.507Z,10.22
2023-05-12T23:16:12.950Z,10.24
2023-05-12T23:18:41.260Z,10.23
2023-05-12T23:21:09.456Z,10.19
2023-05-12T23:23:40.154Z,10.13
2023-05-12T23:26:08.301Z,10.11
2023-05-12T23:28:40.140Z,10.07
2023-05-12T23:31:11.097Z,10.05
2023-05-12T23:33:43.151Z,10.05
2023-05-12T23:36:15.473Z,10.03
2023-05-12T23:38:43.501Z,10.03
2023-05-12T23:41:11.723Z,10.02
2023-05-12T23:43:39.750Z,9.97
2023-05-12T23:46:07.821Z,9.94
2023-05-12T23:48:37.740Z,9.91
2023-05-12T23:51:06.459Z,9.88
2023-05-12T23:53:34.884Z,9.90
2023-05-12T23:56:02.833Z,9.90
2023-05-12T23:58:31.536Z,9.94
